sensor_id;sensor_type;location;lat;lon;timestamp;noise_LAeq;noise_LA_min;noise_LA_max;noise_LA01;noise_LA95
67320;Laerm;57665;51.436;5.978;2023-07-09T00:00:12;43.35;40.11;46.19;;
67320;Laerm;57665;51.436;5.978;2023-07-09T00:00:24;43.09;39.69;45.50;;
67320;Laerm;57665;51.436;5.978;2023-07-09T00:00:34;43.03;39.34;45.82;;
67320;Laerm;57665;51.436;5.978;2023-07-09T00:00:44;43.03;40.12;46.04;;
67320;Laerm;57665;51.436;5.978;2023-07-09T00:00:54;43.09;40.42;45.19;;
67320;Laerm;57665;51.436;5.978;2023-07-09T00:01:05;44.01;40.35;47.65;;
67320;Laerm;57665;51.436;5.978;2023-07-09T00:01:16;43.47;40.20;46.16;;
67320;Laerm;57665;51.436;5.978;2023-07-09T00:01:27;43.09;39.37;45.31;;
67320;Laerm;57665;51.436;5.978;2023-07-09T00:01:37;42.78;40.31;44.75;;
67320;Laerm;57665;51.436;5.978;2023-07-09T00:01:47;42.71;40.10;44.60;;
67320;Laerm;57665;51.436;5.978;2023-07-09T00:01:58;42.77;39.98;44.57;;
67320;Laerm;57665;51.436;5.978;2023-07-09T00:02:10;42.24;39.09;45.03;;
67320;Laerm;57665;51.436;5.978;2023-07-09T00:02:21;41.97;39.35;44.60;;
67320;Laerm;57665;51.436;5.978;2023-07-09T00:02:32;42.09;39.00;46.39;;
67320;Laerm;57665;51.436;5.978;2023-07-09T00:02:42;43.32;40.07;46.35;;
67320;Laerm;57665;51.436;5.978;2023-07-09T00:02:52;43.17;39.50;45.61;;
67320;Laerm;57665;51.436;5.978;2023-07-09T00:03:03;43.07;40.55;45.06;;
67320;Laerm;57665;51.436;5.978;2023-07-09T00:03:13;43.14;39.40;45.79;;
67320;Laerm;57665;51.436;5.978;2023-07-09T00:03:23;43.89;40.46;46.18;;
67320;Laerm;57665;51.436;5.978;2023-07-09T00:03:34;43.25;39.53;45.61;;
67320;Laerm;57665;51.436;5.978;2023-07-09T00:03:44;43.32;40.29;45.60;;
67320;Laerm;57665;51.436;5.978;2023-07-09T00:03:55;43.29;39.52;45.68;;
67320;Laerm;57665;51.436;5.978;2023-07-09T00:04:07;43.62;40.34;45.76;;
67320;Laerm;57665;51.436;5.978;2023-07-09T00:04:18;44.27;40.68;46.83;;
67320;Laerm;57665;51.436;5.978;2023-07-09T00:04:28;43.19;39.32;45.77;;
67320;Laerm;57665;51.436;5.978;2023-07-09T00:04:39;43.10;39.55;44.90;;
67320;Laerm;57665;51.436;5.978;2023-07-09T00:04:49;43.26;40.58;45.39;;
67320;Laerm;57665;51.436;5.978;2023-07-09T00:05:00;43.16;39.77;45.33;;
67320;Laerm;57665;51.436;5.978;2023-07-09T00:05:14;43.32;39.22;45.67;;
67320;Laerm;57665;51.436;5.978;2023-07-09T00:05:24;43.60;39.60;46.11;;
67320;Laerm;57665;51.436;5.978;2023-07-09T00:05:35;43.00;39.26;45.78;;
67320;Laerm;57665;51.436;5.978;2023-07-09T00:05:47;43.25;39.16;45.61;;
67320;Laerm;57665;51.436;5.978;2023-07-09T00:05:58;43.14;39.57;46.04;;
67320;Laerm;57665;51.436;5.978;2023-07-09T00:06:08;43.12;39.38;46.33;;
67320;Laerm;57665;51.436;5.978;2023-07-09T00:06:19;43.74;39.16;46.28;;
67320;Laerm;57665;51.436;5.978;2023-07-09T00:06:29;43.81;40.68;46.02;;
67320;Laerm;57665;51.436;5.978;2023-07-09T00:06:39;44.12;40.04;46.98;;
67320;Laerm;57665;51.436;5.978;2023-07-09T00:06:50;44.29;40.31;46.85;;
67320;Laerm;57665;51.436;5.978;2023-07-09T00:07:01;44.21;40.11;46.72;;
67320;Laerm;57665;51.436;5.978;2023-07-09T00:07:28;44.11;40.75;46.48;;
67320;Laerm;57665;51.436;5.978;2023-07-09T00:07:40;44.05;39.69;46.46;;
67320;Laerm;57665;51.436;5.978;2023-07-09T00:07:50;44.16;40.65;46.91;;
67320;Laerm;57665;51.436;5.978;2023-07-09T00:08:00;40.75;39.07;42.03;;
67320;Laerm;57665;51.436;5.978;2023-07-09T00:08:33;42.19;39.30;46.37;;
67320;Laerm;57665;51.436;5.978;2023-07-09T00:08:44;44.00;40.89;46.62;;
67320;Laerm;57665;51.436;5.978;2023-07-09T00:08:56;43.74;39.09;46.31;;
67320;Laerm;57665;51.436;5.978;2023-07-09T00:09:13;41.36;38.86;45.86;;
67320;Laerm;57665;51.436;5.978;2023-07-09T00:09:24;43.86;39.33;46.59;;
67320;Laerm;57665;51.436;5.978;2023-07-09T00:09:34;43.91;39.71;46.39;;
67320;Laerm;57665;51.436;5.978;2023-07-09T00:09:44;43.99;39.90;46.48;;
67320;Laerm;57665;51.436;5.978;2023-07-09T00:09:55;41.36;39.24;43.54;;
67320;Laerm;57665;51.436;5.978;2023-07-09T00:10:12;43.62;39.66;46.61;;
67320;Laerm;57665;51.436;5.978;2023-07-09T00:10:23;44.23;39.40;46.77;;
67320;Laerm;57665;51.436;5.978;2023-07-09T00:10:34;44.22;39.71;46.87;;
67320;Laerm;57665;51.436;5.978;2023-07-09T00:10:45;44.27;39.86;46.80;;
67320;Laerm;57665;51.436;5.978;2023-07-09T00:10:55;43.94;39.46;46.47;;
67320;Laerm;57665;51.436;5.978;2023-07-09T00:11:06;44.20;39.31;46.34;;
67320;Laerm;57665;51.436;5.978;2023-07-09T00:11:16;44.49;40.40;47.11;;
67320;Laerm;57665;51.436;5.978;2023-07-09T00:11:26;44.42;40.03;46.86;;
67320;Laerm;57665;51.436;5.978;2023-07-09T00:11:37;44.46;41.03;46.61;;
67320;Laerm;57665;51.436;5.978;2023-07-09T00:11:47;44.44;40.84;46.63;;
67320;Laerm;57665;51.436;5.978;2023-07-09T00:11:58;44.18;40.30;46.84;;
67320;Laerm;57665;51.436;5.978;2023-07-09T00:12:14;44.75;41.27;46.85;;
67320;Laerm;57665;51.436;5.978;2023-07-09T00:12:25;44.51;41.06;47.01;;
67320;Laerm;57665;51.436;5.978;2023-07-09T00:12:35;44.40;39.88;47.15;;
67320;Laerm;57665;51.436;5.978;2023-07-09T00:12:46;44.37;40.85;46.92;;
67320;Laerm;57665;51.436;5.978;2023-07-09T00:12:57;44.32;41.18;46.74;;
67320;Laerm;57665;51.436;5.978;2023-07-09T00:13:07;44.48;40.80;46.92;;
67320;Laerm;57665;51.436;5.978;2023-07-09T00:13:17;44.12;39.79;46.55;;
67320;Laerm;57665;51.436;5.978;2023-07-09T00:13:28;44.47;39.95;47.21;;
67320;Laerm;57665;51.436;5.978;2023-07-09T00:13:38;44.72;40.68;47.36;;
67320;Laerm;57665;51.436;5.978;2023-07-09T00:13:48;44.45;41.20;46.77;;
67320;Laerm;57665;51.436;5.978;2023-07-09T00:13:58;44.89;40.89;47.27;;
67320;Laerm;57665;51.436;5.978;2023-07-09T00:14:10;44.71;40.82;47.41;;
67320;Laerm;57665;51.436;5.978;2023-07-09T00:14:20;44.66;40.83;47.03;;
67320;Laerm;57665;51.436;5.978;2023-07-09T00:14:30;44.39;40.96;46.90;;
67320;Laerm;57665;51.436;5.978;2023-07-09T00:14:41;44.99;40.64;47.51;;
67320;Laerm;57665;51.436;5.978;2023-07-09T00:14:51;44.61;40.30;46.85;;
67320;Laerm;57665;51.436;5.978;2023-07-09T00:15:02;44.89;41.37;47.21;;
67320;Laerm;57665;51.436;5.978;2023-07-09T00:15:13;44.65;41.07;47.03;;
67320;Laerm;57665;51.436;5.978;2023-07-09T00:15:25;44.22;41.06;46.71;;
67320;Laerm;57665;51.436;5.978;2023-07-09T00:15:35;43.97;40.09;46.10;;
67320;Laerm;57665;51.436;5.978;2023-07-09T00:15:46;43.91;39.71;46.58;;
67320;Laerm;57665;51.436;5.978;2023-07-09T00:15:57;43.18;39.80;45.44;;
67320;Laerm;57665;51.436;5.978;2023-07-09T00:16:12;43.48;40.30;45.56;;
67320;Laerm;57665;51.436;5.978;2023-07-09T00:16:24;43.50;39.92;45.77;;
67320;Laerm;57665;51.436;5.978;2023-07-09T00:16:35;43.50;40.27;45.51;;
67320;Laerm;57665;51.436;5.978;2023-07-09T00:16:47;43.46;40.59;45.32;;
67320;Laerm;57665;51.436;5.978;2023-07-09T00:17:00;44.06;41.06;46.57;;
67320;Laerm;57665;51.436;5.978;2023-07-09T00:17:16;43.67;40.63;46.02;;
67320;Laerm;57665;51.436;5.978;2023-07-09T00:17:31;43.55;39.99;45.39;;
67320;Laerm;57665;51.436;5.978;2023-07-09T00:17:43;43.58;40.58;45.46;;
67320;Laerm;57665;51.436;5.978;2023-07-09T00:17:54;43.62;40.48;45.74;;
67320;Laerm;57665;51.436;5.978;2023-07-09T00:18:05;43.54;40.52;45.44;;
67320;Laerm;57665;51.436;5.978;2023-07-09T00:18:16;43.64;40.61;46.15;;
67320;Laerm;57665;51.436;5.978;2023-07-09T00:18:26;43.70;41.04;45.90;;
67320;Laerm;57665;51.436;5.978;2023-07-09T00:18:36;43.63;41.10;45.64;;
67320;Laerm;57665;51.436;5.978;2023-07-09T00:18:46;43.53;40.71;45.34;;
67320;Laerm;57665;51.436;5.978;2023-07-09T00:18:58;43.51;39.62;45.82;;
67320;Laerm;57665;51.436;5.978;2023-07-09T00:19:12;43.54;40.55;45.47;;
67320;Laerm;57665;51.436;5.978;2023-07-09T00:19:26;43.56;39.59;45.91;;
67320;Laerm;57665;51.436;5.978;2023-07-09T00:19:39;43.60;40.11;45.95;;
67320;Laerm;57665;51.436;5.978;2023-07-09T00:19:49;43.62;40.40;45.60;;
67320;Laerm;57665;51.436;5.978;2023-07-09T00:19:59;43.59;40.43;45.64;;
67320;Laerm;57665;51.436;5.978;2023-07-09T00:20:11;43.76;40.86;45.96;;
67320;Laerm;57665;51.436;5.978;2023-07-09T00:20:23;43.83;40.82;46.28;;
67320;Laerm;57665;51.436;5.978;2023-07-09T00:20:34;44.00;40.45;46.24;;
67320;Laerm;57665;51.436;5.978;2023-07-09T00:20:45;44.00;40.87;46.04;;
67320;Laerm;57665;51.436;5.978;2023-07-09T00:20:58;43.89;39.67;46.12;;
67320;Laerm;57665;51.436;5.978;2023-07-09T00:21:09;43.77;40.09;45.90;;
67320;Laerm;57665;51.436;5.978;2023-07-09T00:21:20;43.65;40.41;46.16;;
67320;Laerm;57665;51.436;5.978;2023-07-09T00:21:31;43.12;39.31;45.72;;
67320;Laerm;57665;51.436;5.978;2023-07-09T00:21:44;43.20;40.42;45.36;;
67320;Laerm;57665;51.436;5.978;2023-07-09T00:21:55;43.15;40.04;45.16;;
67320;Laerm;57665;51.436;5.978;2023-07-09T00:22:09;43.71;40.54;46.06;;
67320;Laerm;57665;51.436;5.978;2023-07-09T00:22:23;43.01;39.54;44.93;;
67320;Laerm;57665;51.436;5.978;2023-07-09T00:22:33;43.05;39.85;45.09;;
67320;Laerm;57665;51.436;5.978;2023-07-09T00:22:44;43.06;39.49;44.88;;
67320;Laerm;57665;51.436;5.978;2023-07-09T00:23:04;43.51;39.41;47.25;;
67320;Laerm;57665;51.436;5.978;2023-07-09T00:23:14;44.37;40.51;47.53;;
67320;Laerm;57665;51.436;5.978;2023-07-09T00:23:24;44.68;40.41;48.19;;
67320;Laerm;57665;51.436;5.978;2023-07-09T00:23:37;44.79;40.71;47.89;;
67320;Laerm;57665;51.436;5.978;2023-07-09T00:23:51;44.71;40.58;48.38;;
67320;Laerm;57665;51.436;5.978;2023-07-09T00:24:02;44.96;39.68;48.30;;
67320;Laerm;57665;51.436;5.978;2023-07-09T00:24:15;44.68;39.74;47.69;;
67320;Laerm;57665;51.436;5.978;2023-07-09T00:24:25;44.76;39.68;48.37;;
67320;Laerm;57665;51.436;5.978;2023-07-09T00:24:37;44.72;39.49;47.30;;
67320;Laerm;57665;51.436;5.978;2023-07-09T00:24:49;44.43;39.56;47.83;;
67320;Laerm;57665;51.436;5.978;2023-07-09T00:25:00;44.31;39.73;47.51;;
67320;Laerm;57665;51.436;5.978;2023-07-09T00:25:11;44.51;40.75;47.56;;
67320;Laerm;57665;51.436;5.978;2023-07-09T00:25:26;44.54;40.10;47.33;;
67320;Laerm;57665;51.436;5.978;2023-07-09T00:25:36;44.58;40.17;47.52;;
67320;Laerm;57665;51.436;5.978;2023-07-09T00:25:47;44.65;40.47;47.56;;
67320;Laerm;57665;51.436;5.978;2023-07-09T00:25:57;44.90;40.79;48.42;;
67320;Laerm;57665;51.436;5.978;2023-07-09T00:26:10;42.33;39.63;44.21;;
67320;Laerm;57665;51.436;5.978;2023-07-09T00:26:23;42.36;39.95;44.26;;
67320;Laerm;57665;51.436;5.978;2023-07-09T00:26:33;42.38;39.85;44.21;;
67320;Laerm;57665;51.436;5.978;2023-07-09T00:26:44;42.46;40.13;44.19;;
67320;Laerm;57665;51.436;5.978;2023-07-09T00:26:54;42.36;39.25;44.33;;
67320;Laerm;57665;51.436;5.978;2023-07-09T00:27:08;42.41;39.29;44.52;;
67320;Laerm;57665;51.436;5.978;2023-07-09T00:27:19;42.37;38.93;45.31;;
67320;Laerm;57665;51.436;5.978;2023-07-09T00:27:30;42.75;40.09;44.99;;
67320;Laerm;57665;51.436;5.978;2023-07-09T00:27:41;42.74;40.18;44.88;;
67320;Laerm;57665;51.436;5.978;2023-07-09T00:27:54;42.70;39.57;45.34;;
67320;Laerm;57665;51.436;5.978;2023-07-09T00:28:04;42.50;39.63;45.09;;
67320;Laerm;57665;51.436;5.978;2023-07-09T00:28:15;42.34;39.93;44.46;;
67320;Laerm;57665;51.436;5.978;2023-07-09T00:28:26;42.30;39.46;44.45;;
67320;Laerm;57665;51.436;5.978;2023-07-09T00:28:36;42.34;40.05;44.12;;
67320;Laerm;57665;51.436;5.978;2023-07-09T00:28:46;42.46;39.35;44.33;;
67320;Laerm;57665;51.436;5.978;2023-07-09T00:28:57;42.60;39.64;44.53;;
67320;Laerm;57665;51.436;5.978;2023-07-09T00:29:10;42.59;39.59;44.42;;
67320;Laerm;57665;51.436;5.978;2023-07-09T00:29:21;42.38;39.52;44.12;;
67320;Laerm;57665;51.436;5.978;2023-07-09T00:29:31;42.07;39.05;44.26;;
67320;Laerm;57665;51.436;5.978;2023-07-09T00:29:41;41.40;39.11;44.26;;
67320;Laerm;57665;51.436;5.978;2023-07-09T00:29:51;40.00;39.10;41.02;;
67320;Laerm;57665;51.436;5.978;2023-07-09T00:30:07;40.47;39.19;42.73;;
67320;Laerm;57665;51.436;5.978;2023-07-09T00:30:19;41.27;38.94;44.91;;
67320;Laerm;57665;51.436;5.978;2023-07-09T00:30:30;42.54;39.39;44.70;;
67320;Laerm;57665;51.436;5.978;2023-07-09T00:30:40;42.87;39.39;45.78;;
67320;Laerm;57665;51.436;5.978;2023-07-09T00:30:50;42.59;38.94;44.86;;
67320;Laerm;57665;51.436;5.978;2023-07-09T00:31:01;43.34;39.23;49.10;;
67320;Laerm;57665;51.436;5.978;2023-07-09T00:31:12;43.64;39.92;48.46;;
67320;Laerm;57665;51.436;5.978;2023-07-09T00:31:23;43.12;39.84;48.25;;
67320;Laerm;57665;51.436;5.978;2023-07-09T00:31:33;42.65;39.11;44.57;;
67320;Laerm;57665;51.436;5.978;2023-07-09T00:31:44;45.36;39.47;61.95;;
67320;Laerm;57665;51.436;5.978;2023-07-09T00:31:54;43.45;39.55;54.55;;
67320;Laerm;57665;51.436;5.978;2023-07-09T00:32:08;43.93;40.44;58.80;;
67320;Laerm;57665;51.436;5.978;2023-07-09T00:32:20;43.09;39.51;49.35;;
67320;Laerm;57665;51.436;5.978;2023-07-09T00:32:31;42.95;39.43;45.11;;
67320;Laerm;57665;51.436;5.978;2023-07-09T00:32:41;42.85;39.66;47.24;;
67320;Laerm;57665;51.436;5.978;2023-07-09T00:32:53;42.84;39.62;51.86;;
67320;Laerm;57665;51.436;5.978;2023-07-09T00:33:04;42.66;39.39;44.71;;
67320;Laerm;57665;51.436;5.978;2023-07-09T00:33:15;42.79;39.36;45.33;;
67320;Laerm;57665;51.436;5.978;2023-07-09T00:33:25;44.29;39.12;58.04;;
67320;Laerm;57665;51.436;5.978;2023-07-09T00:33:45;43.55;39.78;46.74;;
67320;Laerm;57665;51.436;5.978;2023-07-09T00:33:57;54.52;39.04;70.20;;
67320;Laerm;57665;51.436;5.978;2023-07-09T00:34:11;42.79;39.31;45.81;;
67320;Laerm;57665;51.436;5.978;2023-07-09T00:34:24;42.66;39.48;45.24;;
67320;Laerm;57665;51.436;5.978;2023-07-09T00:34:35;42.76;39.56;44.86;;
67320;Laerm;57665;51.436;5.978;2023-07-09T00:34:45;42.89;39.42;45.72;;
67320;Laerm;57665;51.436;5.978;2023-07-09T00:34:58;43.29;39.31;46.15;;
67320;Laerm;57665;51.436;5.978;2023-07-09T00:35:11;43.79;40.25;46.82;;
67320;Laerm;57665;51.436;5.978;2023-07-09T00:35:23;43.75;39.51;46.81;;
67320;Laerm;57665;51.436;5.978;2023-07-09T00:35:33;43.72;39.45;46.46;;
67320;Laerm;57665;51.436;5.978;2023-07-09T00:35:44;43.80;39.76;46.03;;
67320;Laerm;57665;51.436;5.978;2023-07-09T00:36:00;43.56;39.22;46.19;;
67320;Laerm;57665;51.436;5.978;2023-07-09T00:36:13;43.75;39.65;46.49;;
67320;Laerm;57665;51.436;5.978;2023-07-09T00:36:28;43.54;39.43;46.20;;
67320;Laerm;57665;51.436;5.978;2023-07-09T00:36:41;43.58;39.25;45.88;;
67320;Laerm;57665;51.436;5.978;2023-07-09T00:36:55;43.66;39.52;46.06;;
67320;Laerm;57665;51.436;5.978;2023-07-09T00:37:09;43.56;39.83;46.11;;
67320;Laerm;57665;51.436;5.978;2023-07-09T00:37:20;42.53;39.08;46.33;;
67320;Laerm;57665;51.436;5.978;2023-07-09T00:37:31;41.48;38.91;45.99;;
67320;Laerm;57665;51.436;5.978;2023-07-09T00:37:42;40.02;38.91;40.96;;
67320;Laerm;57665;51.436;5.978;2023-07-09T00:37:53;40.07;39.23;40.94;;
67320;Laerm;57665;51.436;5.978;2023-07-09T00:38:03;40.21;39.03;41.38;;
67320;Laerm;57665;51.436;5.978;2023-07-09T00:38:21;40.40;39.11;41.95;;
67320;Laerm;57665;51.436;5.978;2023-07-09T00:38:31;40.20;38.85;43.18;;
67320;Laerm;57665;51.436;5.978;2023-07-09T00:38:48;39.94;38.74;40.93;;
67320;Laerm;57665;51.436;5.978;2023-07-09T00:38:59;39.85;38.77;40.87;;
67320;Laerm;57665;51.436;5.978;2023-07-09T00:39:19;39.90;38.93;41.03;;
67320;Laerm;57665;51.436;5.978;2023-07-09T00:39:29;39.91;38.78;41.09;;
67320;Laerm;57665;51.436;5.978;2023-07-09T00:39:40;39.87;38.98;40.93;;
67320;Laerm;57665;51.436;5.978;2023-07-09T00:39:51;39.90;39.05;40.56;;
67320;Laerm;57665;51.436;5.978;2023-07-09T00:40:01;39.98;39.07;41.04;;
67320;Laerm;57665;51.436;5.978;2023-07-09T00:40:17;40.98;39.08;47.50;;
67320;Laerm;57665;51.436;5.978;2023-07-09T00:40:28;44.10;39.25;48.19;;
67320;Laerm;57665;51.436;5.978;2023-07-09T00:40:44;43.60;39.42;45.74;;
67320;Laerm;57665;51.436;5.978;2023-07-09T00:41:00;43.91;39.08;47.44;;
67320;Laerm;57665;51.436;5.978;2023-07-09T00:41:13;44.50;39.25;47.60;;
67320;Laerm;57665;51.436;5.978;2023-07-09T00:41:27;44.70;39.26;48.17;;
67320;Laerm;57665;51.436;5.978;2023-07-09T00:41:38;44.63;39.09;48.31;;
67320;Laerm;57665;51.436;5.978;2023-07-09T00:41:50;44.70;38.71;48.76;;
67320;Laerm;57665;51.436;5.978;2023-07-09T00:42:00;44.84;39.08;48.14;;
67320;Laerm;57665;51.436;5.978;2023-07-09T00:42:11;44.87;40.36;47.61;;
67320;Laerm;57665;51.436;5.978;2023-07-09T00:42:22;44.44;39.68;48.12;;
67320;Laerm;57665;51.436;5.978;2023-07-09T00:42:33;44.40;39.59;47.56;;
67320;Laerm;57665;51.436;5.978;2023-07-09T00:42:45;44.71;40.37;47.24;;
67320;Laerm;57665;51.436;5.978;2023-07-09T00:42:59;44.86;39.37;47.77;;
67320;Laerm;57665;51.436;5.978;2023-07-09T00:43:10;44.92;39.05;48.08;;
67320;Laerm;57665;51.436;5.978;2023-07-09T00:43:25;44.71;39.20;48.10;;
67320;Laerm;57665;51.436;5.978;2023-07-09T00:43:36;44.77;39.58;47.59;;
67320;Laerm;57665;51.436;5.978;2023-07-09T00:43:48;44.66;39.08;47.63;;
67320;Laerm;57665;51.436;5.978;2023-07-09T00:43:58;44.97;39.86;48.12;;
67320;Laerm;57665;51.436;5.978;2023-07-09T00:44:25;44.91;39.94;47.98;;
67320;Laerm;57665;51.436;5.978;2023-07-09T00:44:39;44.82;39.78;48.71;;
67320;Laerm;57665;51.436;5.978;2023-07-09T00:44:54;44.67;40.00;47.60;;
67320;Laerm;57665;51.436;5.978;2023-07-09T00:45:07;44.82;39.95;47.98;;
67320;Laerm;57665;51.436;5.978;2023-07-09T00:45:29;44.78;39.69;47.84;;
67320;Laerm;57665;51.436;5.978;2023-07-09T00:45:42;41.53;38.96;47.93;;
67320;Laerm;57665;51.436;5.978;2023-07-09T00:46:14;40.02;38.96;41.00;;
67320;Laerm;57665;51.436;5.978;2023-07-09T00:47:47;40.00;38.82;41.11;;
67320;Laerm;57665;51.436;5.978;2023-07-09T00:48:02;40.01;38.89;40.96;;
67320;Laerm;57665;51.436;5.978;2023-07-09T00:48:16;39.98;38.80;40.87;;
67320;Laerm;57665;51.436;5.978;2023-07-09T00:48:27;40.02;38.88;40.97;;
67320;Laerm;57665;51.436;5.978;2023-07-09T00:48:42;40.01;39.04;40.83;;
67320;Laerm;57665;51.436;5.978;2023-07-09T00:48:53;40.03;39.13;41.45;;
67320;Laerm;57665;51.436;5.978;2023-07-09T00:49:08;40.01;38.94;41.04;;
67320;Laerm;57665;51.436;5.978;2023-07-09T00:49:37;40.00;39.05;40.97;;
67320;Laerm;57665;51.436;5.978;2023-07-09T00:49:59;40.08;39.05;41.32;;
67320;Laerm;57665;51.436;5.978;2023-07-09T00:50:15;40.14;39.02;41.25;;
67320;Laerm;57665;51.436;5.978;2023-07-09T00:50:33;40.16;39.10;41.25;;
67320;Laerm;57665;51.436;5.978;2023-07-09T00:50:50;40.17;39.20;41.15;;
67320;Laerm;57665;51.436;5.978;2023-07-09T00:51:04;40.19;39.15;41.13;;
67320;Laerm;57665;51.436;5.978;2023-07-09T00:51:20;40.16;39.10;41.60;;
67320;Laerm;57665;51.436;5.978;2023-07-09T00:51:31;40.12;39.20;40.91;;
67320;Laerm;57665;51.436;5.978;2023-07-09T00:51:44;40.17;39.29;41.40;;
67320;Laerm;57665;51.436;5.978;2023-07-09T00:51:57;40.20;39.14;41.21;;
67320;Laerm;57665;51.436;5.978;2023-07-09T00:52:17;40.41;39.45;41.65;;
67320;Laerm;57665;51.436;5.978;2023-07-09T00:52:38;40.24;39.32;41.36;;
67320;Laerm;57665;51.436;5.978;2023-07-09T00:52:51;40.40;39.27;41.61;;
67320;Laerm;57665;51.436;5.978;2023-07-09T00:53:15;40.88;39.52;43.23;;
67320;Laerm;57665;51.436;5.978;2023-07-09T00:53:29;40.31;39.24;41.31;;
67320;Laerm;57665;51.436;5.978;2023-07-09T00:53:41;40.29;39.06;41.24;;
67320;Laerm;57665;51.436;5.978;2023-07-09T00:53:57;40.35;38.89;41.94;;
67320;Laerm;57665;51.436;5.978;2023-07-09T00:54:13;40.32;39.44;41.59;;
67320;Laerm;57665;51.436;5.978;2023-07-09T00:54:26;40.35;39.23;41.33;;
67320;Laerm;57665;51.436;5.978;2023-07-09T00:54:41;40.40;39.36;41.60;;
67320;Laerm;57665;51.436;5.978;2023-07-09T00:54:53;40.43;39.44;41.73;;
67320;Laerm;57665;51.436;5.978;2023-07-09T00:55:05;40.40;39.30;41.31;;
67320;Laerm;57665;51.436;5.978;2023-07-09T00:55:19;40.35;39.46;41.27;;
67320;Laerm;57665;51.436;5.978;2023-07-09T00:55:31;40.31;39.22;41.38;;
67320;Laerm;57665;51.436;5.978;2023-07-09T00:55:42;40.31;39.33;41.13;;
67320;Laerm;57665;51.436;5.978;2023-07-09T00:55:56;40.28;39.37;41.16;;
67320;Laerm;57665;51.436;5.978;2023-07-09T00:56:09;40.21;39.19;41.17;;
67320;Laerm;57665;51.436;5.978;2023-07-09T00:56:25;40.13;39.16;40.99;;
67320;Laerm;57665;51.436;5.978;2023-07-09T00:56:38;40.11;39.27;41.01;;
67320;Laerm;57665;51.436;5.978;2023-07-09T00:56:50;40.10;39.15;41.25;;
67320;Laerm;57665;51.436;5.978;2023-07-09T00:57:22;40.15;39.12;41.22;;
67320;Laerm;57665;51.436;5.978;2023-07-09T00:57:35;40.13;38.91;41.26;;
67320;Laerm;57665;51.436;5.978;2023-07-09T00:57:48;40.14;39.00;41.21;;
67320;Laerm;57665;51.436;5.978;2023-07-09T00:58:06;40.22;39.19;41.12;;
67320;Laerm;57665;51.436;5.978;2023-07-09T00:58:17;40.19;39.25;44.99;;
67320;Laerm;57665;51.436;5.978;2023-07-09T00:58:28;40.16;38.96;41.20;;
67320;Laerm;57665;51.436;5.978;2023-07-09T00:58:38;40.14;39.15;41.16;;
67320;Laerm;57665;51.436;5.978;2023-07-09T00:58:49;40.26;39.22;41.32;;
67320;Laerm;57665;51.436;5.978;2023-07-09T00:59:00;40.29;39.27;41.22;;
67320;Laerm;57665;51.436;5.978;2023-07-09T00:59:21;40.31;38.98;41.39;;
67320;Laerm;57665;51.436;5.978;2023-07-09T00:59:34;40.42;39.21;41.69;;
67320;Laerm;57665;51.436;5.978;2023-07-09T00:59:49;40.46;39.39;41.71;;
67320;Laerm;57665;51.436;5.978;2023-07-09T01:00:02;40.31;39.25;40.98;;
67320;Laerm;57665;51.436;5.978;2023-07-09T01:00:19;40.96;39.32;45.84;;
67320;Laerm;57665;51.436;5.978;2023-07-09T01:00:41;40.29;39.30;42.51;;
67320;Laerm;57665;51.436;5.978;2023-07-09T01:00:58;40.25;39.12;41.24;;
67320;Laerm;57665;51.436;5.978;2023-07-09T01:01:11;40.27;39.23;41.29;;
67320;Laerm;57665;51.436;5.978;2023-07-09T01:01:25;40.22;39.26;41.11;;
67320;Laerm;57665;51.436;5.978;2023-07-09T01:01:36;40.27;39.18;41.10;;
67320;Laerm;57665;51.436;5.978;2023-07-09T01:01:46;40.22;39.18;41.22;;
67320;Laerm;57665;51.436;5.978;2023-07-09T01:02:00;40.20;39.05;41.23;;
67320;Laerm;57665;51.436;5.978;2023-07-09T01:02:10;40.17;39.16;40.96;;
67320;Laerm;57665;51.436;5.978;2023-07-09T01:02:20;40.13;39.08;40.93;;
67320;Laerm;57665;51.436;5.978;2023-07-09T01:02:33;40.19;39.22;41.16;;
67320;Laerm;57665;51.436;5.978;2023-07-09T01:02:45;40.21;39.07;41.05;;
67320;Laerm;57665;51.436;5.978;2023-07-09T01:02:58;40.44;39.44;41.59;;
67320;Laerm;57665;51.436;5.978;2023-07-09T01:03:09;40.35;39.11;41.38;;
67320;Laerm;57665;51.436;5.978;2023-07-09T01:03:35;40.37;39.55;41.41;;
67320;Laerm;57665;51.436;5.978;2023-07-09T01:03:47;40.39;39.33;41.22;;
67320;Laerm;57665;51.436;5.978;2023-07-09T01:03:58;40.34;39.25;43.56;;
67320;Laerm;57665;51.436;5.978;2023-07-09T01:04:09;40.39;39.53;41.25;;
67320;Laerm;57665;51.436;5.978;2023-07-09T01:04:20;40.36;39.02;41.39;;
67320;Laerm;57665;51.436;5.978;2023-07-09T01:04:31;40.42;39.56;41.34;;
67320;Laerm;57665;51.436;5.978;2023-07-09T01:04:41;40.41;39.17;41.60;;
67320;Laerm;57665;51.436;5.978;2023-07-09T01:04:54;40.33;39.28;41.11;;
67320;Laerm;57665;51.436;5.978;2023-07-09T01:05:05;40.40;39.37;41.53;;
67320;Laerm;57665;51.436;5.978;2023-07-09T01:05:16;40.45;39.49;41.65;;
67320;Laerm;57665;51.436;5.978;2023-07-09T01:05:27;40.48;39.53;41.59;;
67320;Laerm;57665;51.436;5.978;2023-07-09T01:05:38;40.46;39.45;41.26;;
67320;Laerm;57665;51.436;5.978;2023-07-09T01:05:48;40.45;38.78;41.41;;
67320;Laerm;57665;51.436;5.978;2023-07-09T01:06:01;40.70;39.44;46.93;;
67320;Laerm;57665;51.436;5.978;2023-07-09T01:06:13;41.16;39.51;42.41;;
67320;Laerm;57665;51.436;5.978;2023-07-09T01:06:35;41.26;39.63;42.64;;
67320;Laerm;57665;51.436;5.978;2023-07-09T01:06:53;41.05;39.37;42.44;;
67320;Laerm;57665;51.436;5.978;2023-07-09T01:07:04;40.43;39.37;41.33;;
67320;Laerm;57665;51.436;5.978;2023-07-09T01:07:15;40.46;39.48;41.72;;
67320;Laerm;57665;51.436;5.978;2023-07-09T01:07:27;40.55;39.66;44.40;;
67320;Laerm;57665;51.436;5.978;2023-07-09T01:07:38;40.47;39.42;41.44;;
67320;Laerm;57665;51.436;5.978;2023-07-09T01:07:48;40.57;39.60;41.75;;
67320;Laerm;57665;51.436;5.978;2023-07-09T01:07:58;40.49;39.50;41.49;;
67320;Laerm;57665;51.436;5.978;2023-07-09T01:08:09;40.45;39.37;41.44;;
67320;Laerm;57665;51.436;5.978;2023-07-09T01:08:20;40.93;39.49;42.85;;
67320;Laerm;57665;51.436;5.978;2023-07-09T01:08:31;40.67;39.50;42.32;;
67320;Laerm;57665;51.436;5.978;2023-07-09T01:08:42;40.52;39.56;41.59;;
67320;Laerm;57665;51.436;5.978;2023-07-09T01:08:53;40.51;39.43;41.33;;
67320;Laerm;57665;51.436;5.978;2023-07-09T01:09:03;40.59;39.60;41.60;;
67320;Laerm;57665;51.436;5.978;2023-07-09T01:09:14;40.56;39.49;41.41;;
67320;Laerm;57665;51.436;5.978;2023-07-09T01:09:25;40.51;39.44;41.65;;
67320;Laerm;57665;51.436;5.978;2023-07-09T01:09:35;40.55;39.57;41.49;;
67320;Laerm;57665;51.436;5.978;2023-07-09T01:09:51;40.49;39.54;41.55;;
67320;Laerm;57665;51.436;5.978;2023-07-09T01:10:01;40.43;39.54;41.58;;
67320;Laerm;57665;51.436;5.978;2023-07-09T01:10:15;40.40;39.10;41.31;;
67320;Laerm;57665;51.436;5.978;2023-07-09T01:10:26;40.33;39.43;41.45;;
67320;Laerm;57665;51.436;5.978;2023-07-09T01:10:36;40.34;39.41;41.34;;
67320;Laerm;57665;51.436;5.978;2023-07-09T01:10:47;40.31;39.43;41.24;;
67320;Laerm;57665;51.436;5.978;2023-07-09T01:10:57;40.33;39.24;41.18;;
67320;Laerm;57665;51.436;5.978;2023-07-09T01:11:15;40.29;39.22;41.15;;
67320;Laerm;57665;51.436;5.978;2023-07-09T01:11:26;40.24;38.96;41.75;;